sensor_id;sensor_type;location;lat;lon;timestamp;temperature;humidity
48206;DHT22;33995;48.202;16.260;2022-12-07T00:02:32;5.20;99.90
48206;DHT22;33995;48.202;16.260;2022-12-07T00:05:01;5.20;99.90
48206;DHT22;33995;48.202;16.260;2022-12-07T00:07:35;5.30;99.90
48206;DHT22;33995;48.202;16.260;2022-12-07T00:10:04;5.30;99.90
48206;DHT22;33995;48.202;16.260;2022-12-07T00:12:34;5.30;99.90
48206;DHT22;33995;48.202;16.260;2022-12-07T00:15:05;5.30;99.90
48206;DHT22;33995;48.202;16.260;2022-12-07T00:17:46;5.30;99.90
48206;DHT22;33995;48.202;16.260;2022-12-07T00:20:16;5.30;99.90
48206;DHT22;33995;48.202;16.260;2022-12-07T00:22:49;5.30;99.90
48206;DHT22;33995;48.202;16.260;2022-12-07T00:25:21;5.30;99.90
48206;DHT22;33995;48.202;16.260;2022-12-07T00:27:55;5.30;99.90
48206;DHT22;33995;48.202;16.260;2022-12-07T00:30:25;5.30;99.90
48206;DHT22;33995;48.202;16.260;2022-12-07T00:32:55;5.30;99.90
48206;DHT22;33995;48.202;16.260;2022-12-07T00:35:40;5.30;99.90
48206;DHT22;33995;48.202;16.260;2022-12-07T00:38:12;5.30;99.90
48206;DHT22;33995;48.202;16.260;2022-12-07T00:40:43;5.30;99.90
48206;DHT22;33995;48.202;16.260;2022-12-07T00:43:13;5.20;99.90
48206;DHT22;33995;48.202;16.260;2022-12-07T00:45:41;5.30;99.90
48206;DHT22;33995;48.202;16.260;2022-12-07T00:48:12;5.30;99.90
48206;DHT22;33995;48.202;16.260;2022-12-07T00:50:45;5.30;99.90
48206;DHT22;33995;48.202;16.260;2022-12-07T00:53:16;5.30;99.90
48206;DHT22;33995;48.202;16.260;2022-12-07T00:55:47;5.30;99.90
48206;DHT22;33995;48.202;16.260;2022-12-07T00:58:16;5.40;99.90
48206;DHT22;33995;48.202;16.260;2022-12-07T01:00:50;5.30;99.90
48206;DHT22;33995;48.202;16.260;2022-12-07T01:03:23;5.30;99.90
48206;DHT22;33995;48.202;16.260;2022-12-07T01:05:53;5.30;99.90
48206;DHT22;33995;48.202;16.260;2022-12-07T01:08:26;5.30;99.90
48206;DHT22;33995;48.202;16.260;2022-12-07T01:11:06;5.30;99.90
48206;DHT22;33995;48.202;16.260;2022-12-07T01:13:35;5.30;99.90
48206;DHT22;33995;48.202;16.260;2022-12-07T01:16:04;5.30;99.90
48206;DHT22;33995;48.202;16.260;2022-12-07T01:18:45;5.30;99.90
48206;DHT22;33995;48.202;16.260;2022-12-07T01:21:20;5.30;99.90
48206;DHT22;33995;48.202;16.260;2022-12-07T01:23:50;5.30;99.90
48206;DHT22;33995;48.202;16.260;2022-12-07T01:26:21;5.30;99.90
48206;DHT22;33995;48.202;16.260;2022-12-07T01:28:53;5.30;99.90
48206;DHT22;33995;48.202;16.260;2022-12-07T01:31:27;5.40;99.90
48206;DHT22;33995;48.202;16.260;2022-12-07T01:33:59;5.30;99.90
48206;DHT22;33995;48.202;16.260;2022-12-07T01:36:31;5.30;99.90
48206;DHT22;33995;48.202;16.260;2022-12-07T01:39:04;5.30;99.90
48206;DHT22;33995;48.202;16.260;2022-12-07T01:41:39;5.30;99.90
48206;DHT22;33995;48.202;16.260;2022-12-07T01:44:27;5.30;99.90
48206;DHT22;33995;48.202;16.260;2022-12-07T01:47:06;5.30;99.90
48206;DHT22;33995;48.202;16.260;2022-12-07T01:49:45;5.30;99.90
48206;DHT22;33995;48.202;16.260;2022-12-07T01:52:30;5.30;99.90
48206;DHT22;33995;48.202;16.260;2022-12-07T01:55:03;5.30;99.90
48206;DHT22;33995;48.202;16.260;2022-12-07T01:57:44;5.20;99.90
48206;DHT22;33995;48.202;16.260;2022-12-07T02:00:26;5.30;99.90
48206;DHT22;33995;48.202;16.260;2022-12-07T02:03:03;5.30;99.90
48206;DHT22;33995;48.202;16.260;2022-12-07T02:05:37;5.20;99.90
48206;DHT22;33995;48.202;16.260;2022-12-07T02:08:13;5.20;99.90
48206;DHT22;33995;48.202;16.260;2022-12-07T02:10:44;5.30;99.90
48206;DHT22;33995;48.202;16.260;2022-12-07T02:13:21;5.20;99.90
48206;DHT22;33995;48.202;16.260;2022-12-07T02:22:12;5.20;99.90
48206;DHT22;33995;48.202;16.260;2022-12-07T02:27:57;5.20;99.90
48206;DHT22;33995;48.202;16.260;2022-12-07T02:30:34;5.20;99.90
48206;DHT22;33995;48.202;16.260;2022-12-07T02:33:11;5.20;99.90
48206;DHT22;33995;48.202;16.260;2022-12-07T02:36:17;5.20;99.90
48206;DHT22;33995;48.202;16.260;2022-12-07T02:38:57;5.20;99.90
48206;DHT22;33995;48.202;16.260;2022-12-07T02:41:43;5.20;99.90
48206;DHT22;33995;48.202;16.260;2022-12-07T02:44:20;5.10;99.90
48206;DHT22;33995;48.202;16.260;2022-12-07T02:47:05;5.20;99.90
48206;DHT22;33995;48.202;16.260;2022-12-07T02:49:40;5.20;99.90
48206;DHT22;33995;48.202;16.260;2022-12-07T02:52:19;5.20;99.90
48206;DHT22;33995;48.202;16.260;2022-12-07T02:54:51;5.20;99.90
48206;DHT22;33995;48.202;16.260;2022-12-07T03:00:26;5.10;99.90
48206;DHT22;33995;48.202;16.260;2022-12-07T03:03:26;5.20;99.90
48206;DHT22;33995;48.202;16.260;2022-12-07T03:06:30;5.20;99.90
48206;DHT22;33995;48.202;16.260;2022-12-07T03:09:21;5.20;99.90
48206;DHT22;33995;48.202;16.260;2022-12-07T03:12:01;5.20;99.90
48206;DHT22;33995;48.202;16.260;2022-12-07T03:14:41;5.10;99.90
48206;DHT22;33995;48.202;16.260;2022-12-07T03:17:27;5.00;99.90
48206;DHT22;33995;48.202;16.260;2022-12-07T03:20:03;5.10;99.90
48206;DHT22;33995;48.202;16.260;2022-12-07T03:22:47;5.10;99.90
48206;DHT22;33995;48.202;16.260;2022-12-07T03:25:16;5.10;99.90
48206;DHT22;33995;48.202;16.260;2022-12-07T03:28:07;5.10;99.90
48206;DHT22;33995;48.202;16.260;2022-12-07T03:31:00;5.20;99.90
48206;DHT22;33995;48.202;16.260;2022-12-07T03:33:59;5.10;99.90
48206;DHT22;33995;48.202;16.260;2022-12-07T03:36:57;5.20;99.90
48206;DHT22;33995;48.202;16.260;2022-12-07T03:39:39;5.10;99.90
48206;DHT22;33995;48.202;16.260;2022-12-07T03:42:12;5.20;99.90
48206;DHT22;33995;48.202;16.260;2022-12-07T03:44:44;5.10;99.90
48206;DHT22;33995;48.202;16.260;2022-12-07T03:47:35;5.20;99.90
48206;DHT22;33995;48.202;16.260;2022-12-07T03:53:00;5.10;99.90
48206;DHT22;33995;48.202;16.260;2022-12-07T03:55:39;5.10;99.90
48206;DHT22;33995;48.202;16.260;2022-12-07T03:58:20;5.10;99.90
48206;DHT22;33995;48.202;16.260;2022-12-07T04:00:51;5.10;99.90
48206;DHT22;33995;48.202;16.260;2022-12-07T04:03:22;5.10;99.90
48206;DHT22;33995;48.202;16.260;2022-12-07T04:05:55;5.10;99.90
48206;DHT22;33995;48.202;16.260;2022-12-07T04:08:25;5.10;99.90
48206;DHT22;33995;48.202;16.260;2022-12-07T04:10:54;5.10;99.90
48206;DHT22;33995;48.202;16.260;2022-12-07T04:13:24;5.10;99.90
48206;DHT22;33995;48.202;16.260;2022-12-07T04:15:55;5.10;99.90
48206;DHT22;33995;48.202;16.260;2022-12-07T04:18:27;5.10;99.90
48206;DHT22;33995;48.202;16.260;2022-12-07T04:21:00;5.10;99.90
48206;DHT22;33995;48.202;16.260;2022-12-07T04:23:30;5.10;99.90
48206;DHT22;33995;48.202;16.260;2022-12-07T04:26:01;5.10;99.90
48206;DHT22;33995;48.202;16.260;2022-12-07T04:28:44;5.10;99.90
48206;DHT22;33995;48.202;16.260;2022-12-07T04:31:13;5.20;99.90
48206;DHT22;33995;48.202;16.260;2022-12-07T04:33:43;5.20;99.90
48206;DHT22;33995;48.202;16.260;2022-12-07T04:36:15;5.10;99.90
48206;DHT22;33995;48.202;16.260;2022-12-07T04:38:46;5.10;99.90
48206;DHT22;33995;48.202;16.260;2022-12-07T04:41:21;5.10;99.90
48206;DHT22;33995;48.202;16.260;2022-12-07T04:44:01;5.10;99.90
48206;DHT22;33995;48.202;16.260;2022-12-07T04:46:34;5.10;99.90
48206;DHT22;33995;48.202;16.260;2022-12-07T04:49:06;5.10;99.90
48206;DHT22;33995;48.202;16.260;2022-12-07T04:51:37;5.00;99.90
48206;DHT22;33995;48.202;16.260;2022-12-07T04:54:08;5.10;99.90
48206;DHT22;33995;48.202;16.260;2022-12-07T04:56:52;5.10;99.90
48206;DHT22;33995;48.202;16.260;2022-12-07T04:59:35;5.10;99.90
48206;DHT22;33995;48.202;16.260;2022-12-07T05:02:13;5.10;99.90
48206;DHT22;33995;48.202;16.260;2022-12-07T05:04:44;5.10;99.90
48206;DHT22;33995;48.202;16.260;2022-12-07T05:07:17;5.10;99.90
48206;DHT22;33995;48.202;16.260;2022-12-07T05:09:48;5.10;99.90
48206;DHT22;33995;48.202;16.260;2022-12-07T05:12:21;5.10;99.90
48206;DHT22;33995;48.202;16.260;2022-12-07T05:14:55;5.10;99.90
48206;DHT22;33995;48.202;16.260;2022-12-07T05:17:23;5.10;99.90
48206;DHT22;33995;48.202;16.260;2022-12-07T05:19:57;5.20;99.90
48206;DHT22;33995;48.202;16.260;2022-12-07T05:22:31;5.10;99.90
48206;DHT22;33995;48.202;16.260;2022-12-07T05:25:06;5.10;99.90
48206;DHT22;33995;48.202;16.260;2022-12-07T05:27:36;5.10;99.90
48206;DHT22;33995;48.202;16.260;2022-12-07T05:30:07;5.10;99.90
48206;DHT22;33995;48.202;16.260;2022-12-07T05:32:37;5.10;99.90
48206;DHT22;33995;48.202;16.260;2022-12-07T05:35:08;5.10;99.90
48206;DHT22;33995;48.202;16.260;2022-12-07T05:37:41;5.10;99.90
48206;DHT22;33995;48.202;16.260;2022-12-07T05:40:12;5.10;99.90
48206;DHT22;33995;48.202;16.260;2022-12-07T05:42:45;5.10;99.90
48206;DHT22;33995;48.202;16.260;2022-12-07T05:45:28;5.10;99.90
48206;DHT22;33995;48.202;16.260;2022-12-07T05:47:58;5.10;99.90
48206;DHT22;33995;48.202;16.260;2022-12-07T05:50:29;5.10;99.90
48206;DHT22;33995;48.202;16.260;2022-12-07T05:53:04;5.10;99.90
48206;DHT22;33995;48.202;16.260;2022-12-07T05:55:33;5.10;99.90
48206;DHT22;33995;48.202;16.260;2022-12-07T05:58:04;5.10;99.90
48206;DHT22;33995;48.202;16.260;2022-12-07T06:00:56;5.20;99.90
48206;DHT22;33995;48.202;16.260;2022-12-07T06:03:24;5.20;99.90
48206;DHT22;33995;48.202;16.260;2022-12-07T06:05:58;5.20;99.90
48206;DHT22;33995;48.202;16.260;2022-12-07T06:08:28;5.30;99.90
48206;DHT22;33995;48.202;16.260;2022-12-07T06:11:03;5.20;99.90
48206;DHT22;33995;48.202;16.260;2022-12-07T06:13:55;5.20;99.90
48206;DHT22;33995;48.202;16.260;2022-12-07T06:16:24;5.20;99.90
48206;DHT22;33995;48.202;16.260;2022-12-07T06:19:06;5.10;99.90
48206;DHT22;33995;48.202;16.260;2022-12-07T06:21:51;5.10;99.90
48206;DHT22;33995;48.202;16.260;2022-12-07T06:24:23;5.10;99.90
48206;DHT22;33995;48.202;16.260;2022-12-07T06:27:08;5.10;99.90
48206;DHT22;33995;48.202;16.260;2022-12-07T06:29:49;5.10;99.90
48206;DHT22;33995;48.202;16.260;2022-12-07T06:32:17;5.10;99.90
48206;DHT22;33995;48.202;16.260;2022-12-07T06:34:53;5.10;99.90
48206;DHT22;33995;48.202;16.260;2022-12-07T06:37:36;5.10;99.90
48206;DHT22;33995;48.202;16.260;2022-12-07T06:40:08;5.20;99.90
48206;DHT22;33995;48.202;16.260;2022-12-07T06:42:40;5.10;99.90
48206;DHT22;33995;48.202;16.260;2022-12-07T06:45:12;5.10;99.90
48206;DHT22;33995;48.202;16.260;2022-12-07T06:47:47;5.20;99.90
48206;DHT22;33995;48.202;16.260;2022-12-07T06:50:24;5.10;99.90
48206;DHT22;33995;48.202;16.260;2022-12-07T06:52:54;5.10;99.90
48206;DHT22;33995;48.202;16.260;2022-12-07T06:55:23;5.20;99.90
48206;DHT22;33995;48.202;16.260;2022-12-07T06:57:54;5.10;99.90
48206;DHT22;33995;48.202;16.260;2022-12-07T07:00:26;5.10;99.90
48206;DHT22;33995;48.202;16.260;2022-12-07T07:02:59;5.10;99.90
48206;DHT22;33995;48.202;16.260;2022-12-07T07:05:31;5.10;99.90
48206;DHT22;33995;48.202;16.260;2022-12-07T07:08:14;5.10;99.90
48206;DHT22;33995;48.202;16.260;2022-12-07T07:10:52;5.20;99.90
48206;DHT22;33995;48.202;16.260;2022-12-07T07:13:26;5.20;99.90
48206;DHT22;33995;48.202;16.260;2022-12-07T07:16:07;5.20;99.90
48206;DHT22;33995;48.202;16.260;2022-12-07T07:18:37;5.20;99.90
48206;DHT22;33995;48.202;16.260;2022-12-07T07:21:07;5.20;99.90
48206;DHT22;33995;48.202;16.260;2022-12-07T07:23:56;5.20;99.90
48206;DHT22;33995;48.202;16.260;2022-12-07T07:26:26;5.20;99.90
48206;DHT22;33995;48.202;16.260;2022-12-07T07:28:58;5.20;99.90
48206;DHT22;33995;48.202;16.260;2022-12-07T07:31:30;5.20;99.90
48206;DHT22;33995;48.202;16.260;2022-12-07T07:34:06;5.20;99.90
48206;DHT22;33995;48.202;16.260;2022-12-07T07:36:39;5.30;99.90
48206;DHT22;33995;48.202;16.260;2022-12-07T07:39:19;5.30;99.90
48206;DHT22;33995;48.202;16.260;2022-12-07T07:41:55;5.30;99.90
48206;DHT22;33995;48.202;16.260;2022-12-07T07:44:28;5.40;99.90
48206;DHT22;33995;48.202;16.260;2022-12-07T07:47:02;5.30;99.90
48206;DHT22;33995;48.202;16.260;2022-12-07T07:49:33;5.30;99.90
48206;DHT22;33995;48.202;16.260;2022-12-07T07:52:17;5.30;99.90
48206;DHT22;33995;48.202;16.260;2022-12-07T07:54:48;5.30;99.90
48206;DHT22;33995;48.202;16.260;2022-12-07T07:57:20;5.30;99.90
48206;DHT22;33995;48.202;16.260;2022-12-07T07:59:50;5.40;99.90
48206;DHT22;33995;48.202;16.260;2022-12-07T08:02:22;5.30;99.90
48206;DHT22;33995;48.202;16.260;2022-12-07T08:04:55;5.30;99.90
48206;DHT22;33995;48.202;16.260;2022-12-07T08:07:27;5.30;99.90
48206;DHT22;33995;48.202;16.260;2022-12-07T08:10:12;5.30;99.90
48206;DHT22;33995;48.202;16.260;2022-12-07T08:12:44;5.30;99.90
48206;DHT22;33995;48.202;16.260;2022-12-07T08:15:31;5.40;99.90
48206;DHT22;33995;48.202;16.260;2022-12-07T08:18:04;5.40;99.90
48206;DHT22;33995;48.202;16.260;2022-12-07T08:20:35;5.50;99.90
48206;DHT22;33995;48.202;16.260;2022-12-07T08:23:15;5.50;99.90
48206;DHT22;33995;48.202;16.260;2022-12-07T08:26:04;5.50;99.90
48206;DHT22;33995;48.202;16.260;2022-12-07T08:28:37;5.50;99.90
48206;DHT22;33995;48.202;16.260;2022-12-07T08:31:15;5.50;99.90
48206;DHT22;33995;48.202;16.260;2022-12-07T08:33:46;5.60;99.90
48206;DHT22;33995;48.202;16.260;2022-12-07T08:36:27;5.60;99.90
48206;DHT22;33995;48.202;16.260;2022-12-07T08:39:02;5.80;99.90
48206;DHT22;33995;48.202;16.260;2022-12-07T08:41:51;5.60;99.90
48206;DHT22;33995;48.202;16.260;2022-12-07T08:44:21;5.60;99.90
48206;DHT22;33995;48.202;16.260;2022-12-07T08:47:00;5.60;99.90
48206;DHT22;33995;48.202;16.260;2022-12-07T08:49:45;5.60;99.90
48206;DHT22;33995;48.202;16.260;2022-12-07T08:52:18;5.70;99.90
48206;DHT22;33995;48.202;16.260;2022-12-07T08:55:02;5.60;99.90
48206;DHT22;33995;48.202;16.260;2022-12-07T08:57:34;5.60;99.90
48206;DHT22;33995;48.202;16.260;2022-12-07T09:00:06;5.70;99.90
48206;DHT22;33995;48.202;16.260;2022-12-07T09:02:51;5.80;99.90
48206;DHT22;33995;48.202;16.260;2022-12-07T09:05:20;5.70;99.90
48206;DHT22;33995;48.202;16.260;2022-12-07T09:08:00;5.80;99.90
48206;DHT22;33995;48.202;16.260;2022-12-07T09:10:35;5.90;99.90
48206;DHT22;33995;48.202;16.260;2022-12-07T09:13:07;5.70;99.90
48206;DHT22;33995;48.202;16.260;2022-12-07T09:15:48;5.70;99.90
48206;DHT22;33995;48.202;16.260;2022-12-07T09:18:19;5.60;99.90
48206;DHT22;33995;48.202;16.260;2022-12-07T09:20:51;5.50;99.90
48206;DHT22;33995;48.202;16.260;2022-12-07T09:23:23;5.50;99.90
48206;DHT22;33995;48.202;16.260;2022-12-07T09:26:00;5.40;99.90
48206;DHT22;33995;48.202;16.260;2022-12-07T09:28:38;5.50;99.90
48206;DHT22;33995;48.202;16.260;2022-12-07T09:31:19;5.60;99.90
48206;DHT22;33995;48.202;16.260;2022-12-07T09:33:59;5.70;99.90
48206;DHT22;33995;48.202;16.260;2022-12-07T09:36:35;5.50;99.90
48206;DHT22;33995;48.202;16.260;2022-12-07T09:39:19;5.50;99.90
48206;DHT22;33995;48.202;16.260;2022-12-07T09:41:58;5.60;99.90
48206;DHT22;33995;48.202;16.260;2022-12-07T09:44:40;5.60;99.90
48206;DHT22;33995;48.202;16.260;2022-12-07T09:47:14;5.50;99.90
48206;DHT22;33995;48.202;16.260;2022-12-07T09:49:47;5.60;99.90
48206;DHT22;33995;48.202;16.260;2022-12-07T09:52:25;5.60;99.90
48206;DHT22;33995;48.202;16.260;2022-12-07T09:54:55;5.70;99.90
48206;DHT22;33995;48.202;16.260;2022-12-07T09:57:32;5.70;99.90
48206;DHT22;33995;48.202;16.260;2022-12-07T10:00:19;5.80;99.90
48206;DHT22;33995;48.202;16.260;2022-12-07T10:03:15;5.90;99.90
48206;DHT22;33995;48.202;16.260;2022-12-07T10:05:49;5.90;99.90
48206;DHT22;33995;48.202;16.260;2022-12-07T10:08:25;5.80;99.90
48206;DHT22;33995;48.202;16.260;2022-12-07T10:10:59;5.90;99.90
48206;DHT22;33995;48.202;16.260;2022-12-07T10:13:45;6.00;99.90
48206;DHT22;33995;48.202;16.260;2022-12-07T10:16:37;6.00;99.90
48206;DHT22;33995;48.202;16.260;2022-12-07T10:22:15;6.20;99.90
48206;DHT22;33995;48.202;16.260;2022-12-07T10:25:08;6.10;99.90
48206;DHT22;33995;48.202;16.260;2022-12-07T10:27:39;6.00;99.90
48206;DHT22;33995;48.202;16.260;2022-12-07T10:30:14;6.10;99.90
48206;DHT22;33995;48.202;16.260;2022-12-07T10:32:49;6.20;99.90
48206;DHT22;33995;48.202;16.260;2022-12-07T10:35:31;6.40;99.90
48206;DHT22;33995;48.202;16.260;2022-12-07T10:38:07;6.20;99.90
48206;DHT22;33995;48.202;16.260;2022-12-07T10:40:45;6.20;99.90
48206;DHT22;33995;48.202;16.260;2022-12-07T10:43:20;6.10;99.90
48206;DHT22;33995;48.202;16.260;2022-12-07T11:01:25;5.80;99.90
48206;DHT22;33995;48.202;16.260;2022-12-07T11:07:29;5.90;99.90
48206;DHT22;33995;48.202;16.260;2022-12-07T11:13:14;5.90;99.90
48206;DHT22;33995;48.202;16.260;2022-12-07T11:22:03;6.00;99.90
48206;DHT22;33995;48.202;16.260;2022-12-07T11:25:01;6.20;99.90
48206;DHT22;33995;48.202;16.260;2022-12-07T11:34:10;6.60;99.90
48206;DHT22;33995;48.202;16.260;2022-12-07T11:36:54;6.70;99.90
48206;DHT22;33995;48.202;16.260;2022-12-07T11:39:35;6.50;99.90
48206;DHT22;33995;48.202;16.260;2022-12-07T11:42:12;6.40;99.90
48206;DHT22;33995;48.202;16.260;2022-12-07T11:51:19;6.10;99.90
48206;DHT22;33995;48.202;16.260;2022-12-07T11:54:21;6.30;99.90
48206;DHT22;33995;48.202;16.260;2022-12-07T11:57:02;6.20;99.90
48206;DHT22;33995;48.202;16.260;2022-12-07T11:59:43;6.20;99.90
48206;DHT22;33995;48.202;16.260;2022-12-07T12:02:20;6.10;99.90
48206;DHT22;33995;48.202;16.260;2022-12-07T12:05:14;6.10;99.90
48206;DHT22;33995;48.202;16.260;2022-12-07T12:08:14;6.20;99.90
48206;DHT22;33995;48.202;16.260;2022-12-07T12:11:44;6.30;99.90
48206;DHT22;33995;48.202;16.260;2022-12-07T12:23:54;6.30;99.90
48206;DHT22;33995;48.202;16.260;2022-12-07T12:26:27;6.30;99.90
48206;DHT22;33995;48.202;16.260;2022-12-07T12:29:55;6.20;99.90
48206;DHT22;33995;48.202;16.260;2022-12-07T12:32:27;6.40;99.90
48206;DHT22;33995;48.202;16.260;2022-12-07T12:37:52;6.30;99.90
48206;DHT22;33995;48.202;16.260;2022-12-07T12:42:54;6.40;99.90
48206;DHT22;33995;48.202;16.260;2022-12-07T12:45:31;6.40;99.90
48206;DHT22;33995;48.202;16.260;2022-12-07T12:54:25;6.30;99.90
48206;DHT22;33995;48.202;16.260;2022-12-07T12:57:17;6.30;99.90
48206;DHT22;33995;48.202;16.260;2022-12-07T13:00:00;6.40;99.90
48206;DHT22;33995;48.202;16.260;2022-12-07T13:02:38;6.40;99.90
48206;DHT22;33995;48.202;16.260;2022-12-07T13:08:03;6.30;99.90
48206;DHT22;33995;48.202;16.260;2022-12-07T13:10:46;6.30;99.90
48206;DHT22;33995;48.202;16.260;2022-12-07T13:18:40;7.00;99.90
48206;DHT22;33995;48.202;16.260;2022-12-07T13:21:42;7.80;99.90
48206;DHT22;33995;48.202;16.260;2022-12-07T13:24:12;9.10;99.90
48206;DHT22;33995;48.202;16.260;2022-12-07T13:26:45;10.90;99.90
48206;DHT22;33995;48.202;16.260;2022-12-07T13:29:20;11.10;99.90
48206;DHT22;33995;48.202;16.260;2022-12-07T13:32:01;11.40;99.90
48206;DHT22;33995;48.202;16.260;2022-12-07T13:34:36;10.70;99.90
48206;DHT22;33995;48.202;16.260;2022-12-07T13:37:30;9.50;99.90
48206;DHT22;33995;48.202;16.260;2022-12-07T13:40:21;9.30;99.90
48206;DHT22;33995;48.202;16.260;2022-12-07T13:42:58;8.90;99.90
48206;DHT22;33995;48.202;16.260;2022-12-07T13:45:33;8.50;99.90
48206;DHT22;33995;48.202;16.260;2022-12-07T13:48:49;8.50;99.90
48206;DHT22;33995;48.202;16.260;2022-12-07T13:51:27;8.30;99.90
48206;DHT22;33995;48.202;16.260;2022-12-07T13:54:14;7.80;99.90
48206;DHT22;33995;48.202;16.260;2022-12-07T13:56:52;8.00;99.90
48206;DHT22;33995;48.202;16.260;2022-12-07T13:59:28;7.80;99.90
48206;DHT22;33995;48.202;16.260;2022-12-07T14:03:01;7.40;99.90
48206;DHT22;33995;48.202;16.260;2022-12-07T14:05:37;7.00;99.90
48206;DHT22;33995;48.202;16.260;2022-12-07T14:18:47;6.20;99.90
48206;DHT22;33995;48.202;16.260;2022-12-07T14:21:18;6.10;99.90
48206;DHT22;33995;48.202;16.260;2022-12-07T14:24:14;6.00;99.90
48206;DHT22;33995;48.202;16.260;2022-12-07T14:26:49;6.00;99.90
48206;DHT22;33995;48.202;16.260;2022-12-07T14:29:32;5.90;99.90
48206;DHT22;33995;48.202;16.260;2022-12-07T14:32:26;5.80;99.90
48206;DHT22;33995;48.202;16.260;2022-12-07T14:35:15;5.70;99.90
48206;DHT22;33995;48.202;16.260;2022-12-07T14:37:54;5.70;99.90
48206;DHT22;33995;48.202;16.260;2022-12-07T14:40:27;5.70;99.90
48206;DHT22;33995;48.202;16.260;2022-12-07T14:43:12;5.70;99.90
48206;DHT22;33995;48.202;16.260;2022-12-07T14:45:41;5.60;99.90
48206;DHT22;33995;48.202;16.260;2022-12-07T14:48:16;5.60;99.90
48206;DHT22;33995;48.202;16.260;2022-12-07T14:51:07;5.50;99.90
48206;DHT22;33995;48.202;16.260;2022-12-07T14:53:57;5.50;99.90
48206;DHT22;33995;48.202;16.260;2022-12-07T14:56:27;5.50;99.90
48206;DHT22;33995;48.202;16.260;2022-12-07T14:58:57;5.40;99.90
48206;DHT22;33995;48.202;16.260;2022-12-07T15:01:29;5.40;99.90
48206;DHT22;33995;48.202;16.260;2022-12-07T15:04:05;5.40;99.90
48206;DHT22;33995;48.202;16.260;2022-12-07T15:06:36;5.40;99.90
48206;DHT22;33995;48.202;16.260;2022-12-07T15:09:08;5.30;99.90
48206;DHT22;33995;48.202;16.260;2022-12-07T15:11:38;5.30;99.90
48206;DHT22;33995;48.202;16.260;2022-12-07T15:14:10;5.40;99.90
48206;DHT22;33995;48.202;16.260;2022-12-07T15:16:43;5.40;99.90
48206;DHT22;33995;48.202;16.260;2022-12-07T15:19:35;5.40;99.90
48206;DHT22;33995;48.202;16.260;2022-12-07T15:22:04;5.30;99.90
48206;DHT22;33995;48.202;16.260;2022-12-07T15:24:35;5.30;99.90
48206;DHT22;33995;48.202;16.260;2022-12-07T15:27:09;5.30;99.90
48206;DHT22;33995;48.202;16.260;2022-12-07T15:29:51;5.30;99.90
48206;DHT22;33995;48.202;16.260;2022-12-07T15:32:21;5.20;99.90
48206;DHT22;33995;48.202;16.260;2022-12-07T15:35:01;5.20;99.90
48206;DHT22;33995;48.202;16.260;2022-12-07T15:37:33;5.20;99.90
48206;DHT22;33995;48.202;16.260;2022-12-07T15:40:11;5.10;99.90
48206;DHT22;33995;48.202;16.260;2022-12-07T15:42:45;5.10;99.90
48206;DHT22;33995;48.202;16.260;2022-12-07T15:45:16;5.10;99.90
48206;DHT22;33995;48.202;16.260;2022-12-07T15:47:51;5.10;99.90
48206;DHT22;33995;48.202;16.260;2022-12-07T15:50:43;5.10;99.90
48206;DHT22;33995;48.202;16.260;2022-12-07T15:53:22;5.10;99.90
48206;DHT22;33995;48.202;16.260;2022-12-07T15:55:56;5.10;99.90
48206;DHT22;33995;48.202;16.260;2022-12-07T15:58:30;5.00;99.90
48206;DHT22;33995;48.202;16.260;2022-12-07T16:01:17;4.90;99.90
48206;DHT22;33995;48.202;16.260;2022-12-07T16:03:49;4.90;99.90
48206;DHT22;33995;48.202;16.260;2022-12-07T16:06:20;4.80;99.90
48206;DHT22;33995;48.202;16.260;2022-12-07T16:08:50;4.80;99.90
48206;DHT22;33995;48.202;16.260;2022-12-07T16:11:25;4.70;99.90
48206;DHT22;33995;48.202;16.260;2022-12-07T16:13:54;4.60;99.90
48206;DHT22;33995;48.202;16.260;2022-12-07T16:16:33;4.60;99.90
48206;DHT22;33995;48.202;16.260;2022-12-07T16:19:03;4.60;99.90
48206;DHT22;33995;48.202;16.260;2022-12-07T16:21:40;4.50;99.90
48206;DHT22;33995;48.202;16.260;2022-12-07T16:24:32;4.40;99.90
48206;DHT22;33995;48.202;16.260;2022-12-07T16:27:01;4.30;99.90
48206;DHT22;33995;48.202;16.260;2022-12-07T16:29:32;4.30;99.90
48206;DHT22;33995;48.202;16.260;2022-12-07T16:32:04;4.20;99.90
48206;DHT22;33995;48.202;16.260;2022-12-07T16:34:44;4.20;99.90
48206;DHT22;33995;48.202;16.260;2022-12-07T16:37:26;4.20;99.90
48206;DHT22;33995;48.202;16.260;2022-12-07T16:39:56;4.20;99.90
48206;DHT22;33995;48.202;16.260;2022-12-07T16:42:25;4.10;99.90
48206;DHT22;33995;48.202;16.260;2022-12-07T16:44:56;4.00;99.90
48206;DHT22;33995;48.202;16.260;2022-12-07T16:47:28;4.00;99.90
48206;DHT22;33995;48.202;16.260;2022-12-07T16:50:05;4.00;99.90
48206;DHT22;33995;48.202;16.260;2022-12-07T16:52:33;4.00;99.90
48206;DHT22;33995;48.202;16.260;2022-12-07T16:55:08;3.90;99.90
48206;DHT22;33995;48.202;16.260;2022-12-07T16:57:43;3.80;99.90
48206;DHT22;33995;48.202;16.260;2022-12-07T17:00:20;3.80;99.90
48206;DHT22;33995;48.202;16.260;2022-12-07T17:02:52;3.80;99.90
48206;DHT22;33995;48.202;16.260;2022-12-07T17:05:41;3.80;99.90
48206;DHT22;33995;48.202;16.260;2022-12-07T17:08:15;3.70;99.90
48206;DHT22;33995;48.202;16.260;2022-12-07T17:10:56;3.70;99.90
48206;DHT22;33995;48.202;16.260;2022-12-07T17:13:26;3.70;99.90
48206;DHT22;33995;48.202;16.260;2022-12-07T17:16:17;3.70;99.90
48206;DHT22;33995;48.202;16.260;2022-12-07T17:18:47;3.70;99.90
48206;DHT22;33995;48.202;16.260;2022-12-07T17:21:19;3.70;99.90
48206;DHT22;33995;48.202;16.260;2022-12-07T17:23:54;3.70;99.90
48206;DHT22;33995;48.202;16.260;2022-12-07T17:26:29;3.60;99.90
48206;DHT22;33995;48.202;16.260;2022-12-07T17:29:06;3.70;99.90
48206;DHT22;33995;48.202;16.260;2022-12-07T17:31:42;3.80;99.90
48206;DHT22;33995;48.202;16.260;2022-12-07T17:34:18;3.80;99.90
48206;DHT22;33995;48.202;16.260;2022-12-07T17:36:56;3.80;99.90
48206;DHT22;33995;48.202;16.260;2022-12-07T17:39:39;3.70;99.90
48206;DHT22;33995;48.202;16.260;2022-12-07T17:42:10;3.70;99.90
48206;DHT22;33995;48.202;16.260;2022-12-07T17:44:59;3.70;99.90
48206;DHT22;33995;48.202;16.260;2022-12-07T17:47:36;3.80;99.90
48206;DHT22;33995;48.202;16.260;2022-12-07T17:50:11;3.70;99.90
48206;DHT22;33995;48.202;16.260;2022-12-07T17:52:44;3.70;99.90
48206;DHT22;33995;48.202;16.260;2022-12-07T17:55:31;3.60;99.90
48206;DHT22;33995;48.202;16.260;2022-12-07T17:58:23;3.60;99.90
48206;DHT22;33995;48.202;16.260;2022-12-07T18:00:55;3.70;99.90
48206;DHT22;33995;48.202;16.260;2022-12-07T18:03:26;3.70;99.90
48206;DHT22;33995;48.202;16.260;2022-12-07T18:06:12;3.60;99.90
48206;DHT22;33995;48.202;16.260;2022-12-07T18:08:52;3.70;99.90
48206;DHT22;33995;48.202;16.260;2022-12-07T18:11:21;3.60;99.90
48206;DHT22;33995;48.202;16.260;2022-12-07T18:13:54;3.60;99.90